Time;durP1;ratioP1;P1;durP2;ratioP2;P2;SDS_P1;SDS_P2;PMS_P1;PMS_P2;Temp;Humidity;BMP_temperature;BMP_pressure;BME280_temperature;BME280_humidity;BME280_pressure;Samples;Min_cycle;Max_cycle;Signal;HPM_P1;HPM_P2
2021/04/11 00:00:06;;;;;;;3.20;1.33;;;11.00;99.90;;;;;;5109249;28;20441;-62
2021/04/11 00:02:31;;;;;;;1.60;0.20;;;10.90;99.90;;;;;;5090721;28;20261;-67
2021/04/11 00:04:57;;;;;;;1.70;0.30;;;10.80;99.90;;;;;;5106367;28;20937;-62
2021/04/11 00:07:23;;;;;;;2.47;1.17;;;10.80;99.90;;;;;;5109806;28;20185;-63
2021/04/11 00:09:48;;;;;;;3.20;1.60;;;10.70;99.90;;;;;;5116832;28;20221;-63
2021/04/11 00:12:14;;;;;;;1.80;0.50;;;10.60;99.90;;;;;;5090428;28;20461;-63
2021/04/11 00:14:39;;;;;;;1.60;0.20;;;10.50;99.90;;;;;;5113388;28;20184;-63
2021/04/11 00:17:05;;;;;;;1.70;0.50;;;10.50;99.90;;;;;;5098904;28;20661;-64
2021/04/11 00:19:30;;;;;;;1.60;0.20;;;10.60;99.90;;;;;;5073908;28;20691;-62
2021/04/11 00:21:56;;;;;;;1.63;0.20;;;10.50;99.90;;;;;;5081144;28;20256;-61
2021/04/11 00:24:21;;;;;;;1.60;0.20;;;10.50;99.90;;;;;;5088949;28;20196;-62
2021/04/11 00:26:47;;;;;;;1.60;0.20;;;10.60;99.90;;;;;;5096642;28;20630;-62
2021/04/11 00:29:13;;;;;;;1.60;0.20;;;10.50;99.90;;;;;;5105076;28;20199;-63
2021/04/11 00:31:38;;;;;;;1.60;0.30;;;10.50;99.90;;;;;;5075302;28;20220;-62
2021/04/11 00:34:04;;;;;;;1.60;0.20;;;10.50;99.90;;;;;;5103529;28;20189;-62
2021/04/11 00:36:29;;;;;;;1.63;0.20;;;10.60;99.90;;;;;;5112633;28;20180;-63
2021/04/11 00:38:55;;;;;;;1.63;0.20;;;10.60;99.90;;;;;;5080596;28;20206;-63
2021/04/11 00:41:37;;;;;;;1.60;0.20;;;10.50;99.90;;;;;;5099798;28;20204;-62
2021/04/11 00:44:04;;;;;;;1.60;0.20;;;10.50;99.90;;;;;;5110548;28;20194;-63
2021/04/11 00:46:53;;;;;;;1.60;0.30;;;10.50;99.90;;;;;;5076673;28;20445;-63
2021/04/11 00:49:35;;;;;;;1.97;0.63;;;10.50;99.90;;;;;;5092853;28;20438;-62
2021/04/11 00:52:03;;;;;;;1.60;0.20;;;10.50;99.90;;;;;;5096859;28;20523;-63
2021/04/11 00:54:28;;;;;;;2.50;1.70;;;10.50;99.90;;;;;;5100610;28;20454;-62
2021/04/11 00:56:54;;;;;;;1.70;0.20;;;10.50;99.90;;;;;;5097746;28;20437;-62
2021/04/11 00:59:21;;;;;;;1.60;0.20;;;10.40;99.90;;;;;;5079252;28;20238;-61
2021/04/11 01:01:47;;;;;;;1.60;0.20;;;10.50;99.90;;;;;;5093101;28;20219;-62
2021/04/11 01:04:14;;;;;;;1.60;0.20;;;10.50;99.90;;;;;;5093113;28;20459;-62
2021/04/11 01:06:56;;;;;;;1.60;0.20;;;10.50;99.90;;;;;;5089832;28;20817;-62
2021/04/11 01:09:24;;;;;;;1.60;0.20;;;10.50;99.90;;;;;;5094609;28;20442;-62
2021/04/11 01:11:52;;;;;;;1.60;0.20;;;10.50;99.90;;;;;;5089459;28;20474;-62
2021/04/11 01:14:18;;;;;;;1.60;0.20;;;10.60;99.90;;;;;;5089030;28;20439;-62
2021/04/11 01:16:44;;;;;;;1.60;0.20;;;10.50;99.90;;;;;;5093751;28;20996;-62
2021/04/11 01:19:16;;;;;;;1.60;0.20;;;10.40;99.90;;;;;;5095538;28;20519;-62
2021/04/11 01:22:04;;;;;;;1.60;0.20;;;10.40;99.90;;;;;;5086632;28;20695;-62
2021/04/11 01:24:45;;;;;;;1.60;0.20;;;10.40;99.90;;;;;;5099857;28;20444;-62
2021/04/11 01:27:14;;;;;;;1.60;0.20;;;10.30;99.90;;;;;;5102705;28;20453;-62
2021/04/11 01:29:41;;;;;;;1.63;0.20;;;10.20;99.90;;;;;;5090089;28;20466;-62
2021/04/11 01:32:09;;;;;;;1.60;0.20;;;10.20;99.90;;;;;;5081857;28;20462;-62
2021/04/11 01:34:35;;;;;;;1.63;0.20;;;10.20;99.90;;;;;;5098560;28;20449;-62
2021/04/11 01:37:01;;;;;;;1.60;0.20;;;10.30;99.90;;;;;;5096399;28;20441;-62
2021/04/11 01:39:30;;;;;;;1.60;0.20;;;10.30;99.90;;;;;;5092919;28;20446;-62
2021/04/11 01:41:56;;;;;;;1.60;0.20;;;10.20;99.90;;;;;;5093640;28;20472;-62
2021/04/11 01:44:27;;;;;;;1.70;0.20;;;10.10;99.90;;;;;;5080159;28;20437;-63
2021/04/11 01:46:53;;;;;;;1.60;0.20;;;10.10;99.90;;;;;;5090459;28;20431;-62
2021/04/11 01:49:21;;;;;;;1.60;0.20;;;10.20;99.90;;;;;;5101097;28;20763;-62
2021/04/11 01:52:00;;;;;;;1.60;0.20;;;10.20;99.90;;;;;;5086763;28;20519;-63
2021/04/11 01:54:30;;;;;;;1.60;0.20;;;10.20;99.90;;;;;;5086661;28;20441;-63
2021/04/11 01:56:56;;;;;;;1.60;0.20;;;10.20;99.90;;;;;;5102420;28;20479;-62
2021/04/11 01:59:28;;;;;;;1.60;0.20;;;10.20;99.90;;;;;;5087367;28;20430;-63
2021/04/11 02:01:54;;;;;;;1.63;0.30;;;10.20;99.90;;;;;;5086295;28;20552;-63
2021/04/11 02:04:21;;;;;;;1.60;0.20;;;10.20;99.90;;;;;;5094684;28;20426;-62
2021/04/11 02:06:53;;;;;;;1.60;0.20;;;10.20;99.90;;;;;;5093252;28;20461;-62
2021/04/11 02:09:31;;;;;;;1.60;0.20;;;10.20;99.90;;;;;;5087906;28;20421;-62
2021/04/11 02:11:59;;;;;;;1.60;0.20;;;10.30;99.90;;;;;;5096452;28;20785;-62
2021/04/11 02:14:25;;;;;;;1.60;0.20;;;10.30;99.90;;;;;;5107907;28;20419;-63
2021/04/11 02:16:51;;;;;;;1.60;0.20;;;10.30;99.90;;;;;;5079520;28;20524;-64
2021/04/11 02:19:23;;;;;;;1.60;0.20;;;10.30;99.90;;;;;;5093824;28;20553;-62
2021/04/11 02:21:59;;;;;;;1.60;0.20;;;10.30;99.90;;;;;;5097381;28;20204;-63
2021/04/11 02:24:25;;;;;;;1.60;0.20;;;10.30;99.90;;;;;;5076372;28;20436;-62
2021/04/11 02:26:51;;;;;;;2.20;2.00;;;10.30;99.90;;;;;;5089589;28;20435;-63
2021/04/11 02:29:19;;;;;;;1.60;0.23;;;10.40;99.90;;;;;;5097540;28;21214;-63
2021/04/11 02:31:45;;;;;;;1.60;0.20;;;10.40;99.90;;;;;;5090819;28;20250;-63
2021/04/11 02:34:23;;;;;;;1.60;0.20;;;10.40;99.90;;;;;;5088054;28;20462;-62
2021/04/11 02:37:10;;;;;;;1.60;0.20;;;10.40;99.90;;;;;;5104614;28;20176;-63
2021/04/11 02:39:39;;;;;;;1.60;0.20;;;10.40;99.90;;;;;;5111106;28;20425;-62
2021/04/11 02:42:18;;;;;;;1.80;0.40;;;10.40;99.90;;;;;;5084165;28;20852;-62
2021/04/11 02:44:46;;;;;;;1.70;0.30;;;10.40;99.90;;;;;;5089597;28;20438;-62
2021/04/11 02:47:13;;;;;;;1.70;0.40;;;10.30;99.90;;;;;;5099416;28;20434;-63
2021/04/11 02:49:39;;;;;;;1.60;0.20;;;10.30;99.90;;;;;;5089921;28;20441;-62
2021/04/11 02:52:08;;;;;;;1.60;0.20;;;10.30;99.90;;;;;;5086772;28;20951;-62
2021/04/11 02:54:36;;;;;;;1.63;0.20;;;10.40;99.90;;;;;;5088747;28;20538;-62
2021/04/11 02:57:05;;;;;;;1.60;0.20;;;10.50;99.90;;;;;;5093183;28;20442;-63
2021/04/11 02:59:30;;;;;;;1.60;0.20;;;10.50;99.90;;;;;;5096636;28;20462;-65
2021/04/11 03:01:58;;;;;;;1.60;0.20;;;10.50;99.90;;;;;;5095375;28;20660;-62
2021/04/11 03:04:24;;;;;;;1.60;0.20;;;10.50;99.90;;;;;;5093406;28;20206;-63
2021/04/11 03:06:56;;;;;;;1.60;0.20;;;10.50;99.90;;;;;;5088749;28;20487;-63
2021/04/11 03:09:26;;;;;;;1.60;0.20;;;10.50;99.90;;;;;;5100571;28;20444;-63
2021/04/11 03:11:56;;;;;;;1.60;0.20;;;10.50;99.90;;;;;;5087309;28;20469;-63
2021/04/11 03:14:28;;;;;;;1.70;0.30;;;10.50;99.90;;;;;;5095834;28;20472;-62
2021/04/11 03:16:54;;;;;;;2.00;1.17;;;10.50;99.90;;;;;;5104989;28;20457;-62
2021/04/11 03:19:44;;;;;;;1.60;0.20;;;10.50;99.90;;;;;;5101054;28;20425;-62
2021/04/11 03:22:11;;;;;;;1.60;0.20;;;10.50;99.90;;;;;;5085787;28;20503;-62
2021/04/11 03:24:37;;;;;;;1.63;0.20;;;10.60;99.90;;;;;;5073989;28;20435;-62
2021/04/11 03:27:40;;;;;;;1.60;0.20;;;10.70;99.90;;;;;;5107697;28;20425;-62
2021/04/11 03:30:19;;;;;;;1.60;0.20;;;10.70;99.90;;;;;;5076859;28;20508;-62
2021/04/11 03:32:51;;;;;;;1.60;0.20;;;10.80;99.90;;;;;;5089663;28;20449;-62
2021/04/11 03:35:21;;;;;;;1.60;0.20;;;10.90;99.90;;;;;;5093140;28;20479;-62
2021/04/11 03:37:48;;;;;;;1.60;0.20;;;11.00;99.90;;;;;;5102162;28;20947;-62
2021/04/11 03:40:17;;;;;;;1.60;0.20;;;11.00;99.90;;;;;;5069641;28;20477;-62
2021/04/11 03:42:46;;;;;;;1.60;0.20;;;11.10;99.90;;;;;;5090368;28;20455;-62
2021/04/11 03:45:13;;;;;;;1.60;0.20;;;11.20;99.90;;;;;;5099942;28;20437;-62
2021/04/11 03:47:47;;;;;;;1.63;0.27;;;11.20;99.90;;;;;;5089917;28;20458;-63
2021/04/11 03:50:18;;;;;;;2.83;0.70;;;11.20;99.90;;;;;;5088780;28;20462;-63
2021/04/11 03:52:53;;;;;;;1.60;0.30;;;11.20;99.90;;;;;;5098068;28;20545;-62
2021/04/11 03:55:23;;;;;;;1.60;0.20;;;11.20;99.90;;;;;;5098901;28;20440;-63
2021/04/11 03:57:53;;;;;;;1.60;0.20;;;11.30;99.90;;;;;;5089803;28;20526;-62
2021/04/11 04:00:32;;;;;;;2.20;0.77;;;11.30;99.90;;;;;;5097061;28;20762;-62
2021/04/11 04:03:02;;;;;;;1.60;0.20;;;11.30;99.90;;;;;;5091100;28;20508;-63
2021/04/11 04:05:29;;;;;;;1.60;0.20;;;11.30;99.90;;;;;;5085457;28;20448;-64
2021/04/11 04:07:59;;;;;;;1.60;0.20;;;11.40;99.90;;;;;;5092340;28;20541;-62
2021/04/11 04:10:29;;;;;;;2.20;0.87;;;11.40;99.90;;;;;;5093956;28;20486;-64
2021/04/11 04:13:23;;;;;;;1.93;0.50;;;11.40;99.90;;;;;;5089304;28;20461;-62
2021/04/11 04:16:01;;;;;;;1.60;0.20;;;11.10;99.90;;;;;;5098305;28;20481;-62
2021/04/11 04:19:03;;;;;;;1.63;0.20;;;10.90;99.90;;;;;;5109807;28;20436;-62
2021/04/11 04:21:55;;;;;;;1.60;0.30;;;10.70;99.90;;;;;;5098211;28;20467;-62
2021/04/11 04:24:39;;;;;;;1.67;0.20;;;10.60;99.90;;;;;;5099755;28;20965;-62
2021/04/11 04:27:26;;;;;;;1.70;0.20;;;10.60;99.90;;;;;;5093791;28;20547;-63
2021/04/11 04:30:07;;;;;;;1.60;0.20;;;10.50;99.90;;;;;;5116553;28;20448;-63
2021/04/11 04:32:42;;;;;;;1.67;0.30;;;10.50;99.90;;;;;;5107459;28;20469;-64
2021/04/11 04:35:32;;;;;;;1.60;0.20;;;10.50;99.90;;;;;;5111565;28;20433;-63
2021/04/11 04:38:24;;;;;;;2.33;1.13;;;10.50;99.90;;;;;;5111047;28;20430;-62
2021/04/11 04:41:13;;;;;;;1.60;0.20;;;10.50;99.90;;;;;;5099275;28;20518;-63
2021/04/11 04:43:48;;;;;;;1.60;0.20;;;10.50;99.90;;;;;;5109919;28;20492;-63
2021/04/11 04:46:34;;;;;;;1.60;0.20;;;10.50;99.90;;;;;;5092421;28;20927;-62
2021/04/11 04:49:10;;;;;;;1.60;0.20;;;10.50;99.90;;;;;;5089421;28;20488;-64
2021/04/11 04:51:48;;;;;;;1.60;0.20;;;10.50;99.90;;;;;;5092893;28;20469;-62
2021/04/11 04:54:31;;;;;;;1.60;0.20;;;10.60;99.90;;;;;;5101395;28;20405;-63
2021/04/11 04:57:11;;;;;;;1.63;0.20;;;10.70;99.90;;;;;;5094149;28;20449;-63
2021/04/11 04:59:55;;;;;;;1.60;0.20;;;10.80;99.90;;;;;;5107116;28;20456;-63
2021/04/11 05:02:24;;;;;;;1.60;0.20;;;10.80;99.90;;;;;;5105955;28;20472;-63
2021/04/11 05:04:57;;;;;;;1.60;0.20;;;10.90;99.90;;;;;;5122319;28;20436;-64
2021/04/11 05:07:26;;;;;;;1.60;0.20;;;10.90;99.90;;;;;;5104088;28;20440;-63
2021/04/11 05:10:07;;;;;;;1.60;0.20;;;11.00;99.90;;;;;;5100382;28;20525;-63
2021/04/11 05:12:50;;;;;;;1.60;0.20;;;11.00;99.90;;;;;;5090956;28;20458;-63
2021/04/11 05:15:31;;;;;;;1.60;0.20;;;11.10;99.90;;;;;;5093271;28;20796;-63
2021/04/11 05:18:07;;;;;;;1.60;0.20;;;11.10;99.90;;;;;;5083858;28;21002;-62
2021/04/11 05:20:38;;;;;;;1.60;0.20;;;11.20;99.90;;;;;;5096464;28;20878;-63
2021/04/11 05:23:19;;;;;;;1.67;0.20;;;11.20;99.90;;;;;;5094482;28;20425;-63
2021/04/11 05:26:07;;;;;;;1.60;0.20;;;11.30;99.90;;;;;;5087827;28;20452;-63
2021/04/11 05:29:04;;;;;;;1.60;0.20;;;11.30;99.90;;;;;;5088730;28;20456;-63
2021/04/11 05:31:37;;;;;;;1.60;0.20;;;11.40;99.90;;;;;;5095724;28;20469;-63
2021/04/11 05:34:05;;;;;;;1.63;0.20;;;11.40;99.90;;;;;;5097859;28;20896;-65
2021/04/11 05:36:52;;;;;;;1.63;0.20;;;11.40;99.90;;;;;;5101193;28;20521;-63
2021/04/11 05:39:38;;;;;;;1.60;0.20;;;11.50;99.90;;;;;;5094417;28;20431;-63
2021/04/11 05:42:45;;;;;;;1.60;0.20;;;11.60;99.90;;;;;;5092496;28;20558;-62
2021/04/11 05:45:37;;;;;;;1.60;0.20;;;11.60;99.90;;;;;;5084123;28;20482;-62
2021/04/11 05:48:39;;;;;;;1.60;0.20;;;11.60;99.90;;;;;;5090444;28;20434;-62
2021/04/11 05:51:24;;;;;;;1.60;0.20;;;11.70;99.90;;;;;;5081099;28;20824;-63
2021/04/11 05:53:56;;;;;;;1.70;0.20;;;11.70;99.90;;;;;;5090196;28;20445;-65
2021/04/11 05:56:28;;;;;;;1.60;0.20;;;11.70;99.90;;;;;;5101227;28;20604;-63
2021/04/11 05:59:07;;;;;;;1.60;0.20;;;11.80;99.90;;;;;;5088946;28;20438;-63
2021/04/11 06:01:40;;;;;;;1.60;0.20;;;11.70;99.90;;;;;;5089409;28;20473;-63
2021/04/11 06:04:12;;;;;;;1.60;0.20;;;11.70;99.90;;;;;;5101401;28;20445;-62
2021/04/11 06:06:43;;;;;;;1.60;0.20;;;11.70;99.90;;;;;;5095813;28;20441;-64
2021/04/11 06:09:26;;;;;;;1.63;0.20;;;11.80;99.90;;;;;;5086982;28;20952;-63
2021/04/11 06:12:03;;;;;;;1.67;0.20;;;11.80;99.90;;;;;;5093067;28;20845;-63
2021/04/11 06:14:37;;;;;;;2.97;0.90;;;11.80;99.90;;;;;;5101167;28;20496;-63
2021/04/11 06:17:10;;;;;;;1.60;0.20;;;11.90;99.90;;;;;;5086292;28;20430;-63
2021/04/11 06:19:37;;;;;;;1.63;0.20;;;11.90;99.90;;;;;;5087342;28;20507;-64
2021/04/11 06:22:13;;;;;;;2.30;1.00;;;11.90;99.90;;;;;;5096925;28;20553;-64
2021/04/11 06:24:56;;;;;;;1.80;0.40;;;11.90;99.90;;;;;;5103236;28;20432;-65
2021/04/11 06:27:40;;;;;;;1.90;0.30;;;12.00;99.90;;;;;;5088132;28;20493;-64
2021/04/11 06:30:16;;;;;;;1.67;0.20;;;11.90;99.90;;;;;;5092624;28;20507;-64
2021/04/11 06:33:20;;;;;;;1.90;0.70;;;12.00;99.90;;;;;;5093108;28;21940;-65
2021/04/11 06:35:50;;;;;;;1.60;0.20;;;11.90;99.90;;;;;;5076541;28;20571;-65
2021/04/11 06:38:20;;;;;;;1.60;0.20;;;11.90;99.90;;;;;;5093665;28;20429;-64
2021/04/11 06:41:07;;;;;;;1.60;0.20;;;11.90;99.90;;;;;;5097404;28;20863;-65
2021/04/11 06:43:45;;;;;;;1.60;0.20;;;11.90;99.90;;;;;;5103535;28;20514;-64
2021/04/11 06:46:31;;;;;;;1.80;0.70;;;12.00;99.90;;;;;;5096345;28;20507;-64
2021/04/11 06:49:30;;;;;;;1.60;0.20;;;12.00;99.90;;;;;;5086859;28;20475;-63
2021/04/11 06:52:20;;;;;;;1.60;0.20;;;12.00;99.90;;;;;;5098721;28;20478;-63
2021/04/11 06:55:14;;;;;;;1.60;0.20;;;12.00;99.90;;;;;;5098581;28;20455;-63
2021/04/11 06:58:02;;;;;;;1.60;0.20;;;12.00;99.90;;;;;;5094910;28;20467;-63
2021/04/11 07:00:42;;;;;;;1.60;0.20;;;12.00;99.90;;;;;;5094180;28;20445;-64
2021/04/11 07:03:32;;;;;;;1.60;0.20;;;12.00;99.90;;;;;;5087680;28;20856;-63
2021/04/11 07:06:35;;;;;;;1.60;0.20;;;12.00;99.90;;;;;;5090353;28;20446;-64
2021/04/11 07:09:09;;;;;;;1.80;0.73;;;12.00;99.90;;;;;;5093458;28;20545;-64
2021/04/11 07:12:14;;;;;;;1.63;0.23;;;12.10;99.90;;;;;;5092245;28;20501;-62
2021/04/11 07:15:02;;;;;;;3.20;1.00;;;12.10;99.90;;;;;;5090522;28;20804;-62
2021/04/11 07:17:33;;;;;;;1.60;0.20;;;12.10;99.90;;;;;;5088851;28;20574;-61
2021/04/11 07:20:31;;;;;;;1.60;0.20;;;12.10;99.90;;;;;;5083351;28;20442;-61
2021/04/11 07:23:41;;;;;;;1.60;0.20;;;12.20;99.90;;;;;;5087591;28;20925;-61
2021/04/11 07:26:09;;;;;;;1.70;0.43;;;12.20;99.90;;;;;;5094213;28;20938;-62
2021/04/11 07:28:53;;;;;;;1.60;0.20;;;12.30;99.90;;;;;;5087710;28;20503;-62
2021/04/11 07:31:42;;;;;;;1.60;0.20;;;12.30;99.90;;;;;;5096006;28;20470;-63
2021/04/11 07:34:45;;;;;;;3.43;1.90;;;12.30;99.90;;;;;;5096303;28;20413;-62
2021/04/11 07:37:18;;;;;;;1.60;0.20;;;12.40;99.90;;;;;;5095600;28;20436;-62
2021/04/11 07:39:54;;;;;;;2.83;1.70;;;12.40;99.90;;;;;;5096444;28;20425;-63
2021/04/11 07:42:53;;;;;;;2.47;1.13;;;12.50;99.90;;;;;;5091923;28;20460;-62
2021/04/11 07:45:55;;;;;;;1.60;0.20;;;12.50;99.90;;;;;;5104402;28;20422;-62
2021/04/11 07:48:39;;;;;;;1.70;0.33;;;12.60;99.90;;;;;;5101401;28;20425;-63
2021/04/11 07:51:42;;;;;;;1.60;0.20;;;12.60;99.90;;;;;;5074707;28;20473;-63
2021/04/11 07:54:37;;;;;;;2.80;1.30;;;12.60;99.90;;;;;;5091301;28;20938;-63
2021/04/11 07:57:29;;;;;;;1.60;0.20;;;12.60;99.90;;;;;;5099283;28;20504;-62
2021/04/11 08:00:17;;;;;;;1.60;0.20;;;12.60;99.90;;;;;;5083615;28;21656;-63
2021/04/11 08:03:13;;;;;;;1.60;0.20;;;12.60;99.90;;;;;;5097596;28;20493;-61
2021/04/11 08:06:04;;;;;;;1.60;0.30;;;12.70;99.90;;;;;;5086945;28;20444;-63
2021/04/11 08:08:56;;;;;;;1.60;0.20;;;12.70;99.90;;;;;;5087596;28;20964;-64
2021/04/11 08:11:52;;;;;;;1.60;0.20;;;12.80;99.90;;;;;;5094468;28;20497;-65
2021/04/11 08:14:28;;;;;;;1.70;0.33;;;12.90;99.90;;;;;;5093185;28;20445;-63
2021/04/11 08:17:06;;;;;;;2.93;0.77;;;12.90;99.90;;;;;;5094172;28;20441;-62
2021/04/11 08:19:50;;;;;;;1.50;0.20;;;13.00;99.90;;;;;;5068373;28;20440;-62
2021/04/11 08:22:36;;;;;;;1.60;0.20;;;13.00;99.90;;;;;;5092283;28;20460;-63
2021/04/11 08:25:30;;;;;;;2.37;0.80;;;13.10;99.90;;;;;;5095191;28;20428;-64
2021/04/11 08:28:07;;;;;;;1.90;0.53;;;13.20;99.90;;;;;;5077063;28;20434;-63
2021/04/11 08:30:45;;;;;;;1.60;0.20;;;13.20;99.90;;;;;;5091411;28;20457;-62
2021/04/11 08:33:53;;;;;;;1.90;0.57;;;13.30;99.90;;;;;;5097103;28;20449;-63
2021/04/11 08:36:37;;;;;;;1.57;0.20;;;13.30;99.90;;;;;;5094259;28;20466;-63
2021/04/11 08:39:18;;;;;;;1.60;0.20;;;13.50;99.90;;;;;;5095482;28;20434;-61
2021/04/11 08:42:21;;;;;;;1.60;0.20;;;13.50;99.90;;;;;;5103745;28;20475;-62
2021/04/11 08:45:11;;;;;;;1.80;0.40;;;13.60;99.90;;;;;;5091768;28;20514;-62
2021/04/11 08:47:48;;;;;;;1.83;0.60;;;13.60;99.90;;;;;;5105027;28;20421;-65
2021/04/11 08:50:42;;;;;;;1.60;0.20;;;13.60;99.90;;;;;;5108821;28;20979;-62
2021/04/11 08:53:49;;;;;;;2.00;1.00;;;13.70;99.90;;;;;;5104375;28;20430;-66
2021/04/11 08:56:28;;;;;;;1.60;0.20;;;13.90;99.90;;;;;;5061588;28;20790;-61
2021/04/11 08:59:08;;;;;;;1.60;0.20;;;13.90;99.90;;;;;;5102374;28;20425;-61
2021/04/11 09:01:47;;;;;;;1.60;0.20;;;13.90;99.90;;;;;;5110105;28;20457;-64
2021/04/11 09:04:23;;;;;;;2.53;1.33;;;14.00;99.90;;;;;;5098978;28;20442;-61
2021/04/11 09:07:16;;;;;;;1.60;0.20;;;14.10;99.90;;;;;;5086982;28;20446;-60
2021/04/11 09:10:14;;;;;;;1.60;0.20;;;14.00;99.90;;;;;;5093467;28;20434;-61
2021/04/11 09:13:04;;;;;;;2.27;0.97;;;14.00;99.90;;;;;;5099624;28;20963;-59
2021/04/11 09:15:46;;;;;;;2.90;0.67;;;14.00;99.90;;;;;;5101635;28;20439;-61
2021/04/11 09:18:24;;;;;;;1.60;0.20;;;14.10;99.90;;;;;;5095476;28;20512;-62
2021/04/11 09:20:57;;;;;;;2.43;0.80;;;14.20;99.90;;;;;;5093181;28;20480;-62
2021/04/11 09:23:45;;;;;;;2.00;0.63;;;14.20;99.90;;;;;;5103903;28;20954;-62
2021/04/11 09:26:47;;;;;;;1.83;0.53;;;14.30;99.90;;;;;;5097287;28;20434;-62
2021/04/11 09:29:28;;;;;;;1.60;0.20;;;14.40;99.90;;;;;;5089364;28;20452;-62
2021/04/11 09:32:20;;;;;;;1.70;0.20;;;14.50;99.90;;;;;;5088415;28;20469;-62
2021/04/11 09:35:00;;;;;;;1.60;0.30;;;14.60;99.90;;;;;;5085347;28;20430;-62
2021/04/11 09:37:59;;;;;;;2.23;0.40;;;14.70;99.90;;;;;;5093960;28;20516;-62
2021/04/11 09:40:40;;;;;;;1.60;0.20;;;14.90;99.90;;;;;;5098985;28;20971;-66
2021/04/11 09:43:32;;;;;;;1.60;0.20;;;15.00;99.90;;;;;;5092483;28;20459;-63
2021/04/11 09:46:25;;;;;;;1.70;0.30;;;15.10;99.90;;;;;;5075964;28;20963;-62
2021/04/11 09:48:57;;;;;;;1.67;0.20;;;15.20;99.90;;;;;;5084771;28;20479;-61
2021/04/11 09:51:27;;;;;;;1.60;0.20;;;15.30;99.90;;;;;;5089706;28;20469;-61
2021/04/11 09:54:17;;;;;;;5.67;5.10;;;15.30;99.90;;;;;;5087331;28;20430;-62
2021/04/11 09:56:58;;;;;;;2.63;1.23;;;15.30;99.90;;;;;;5089222;28;20492;-60
2021/04/11 09:59:47;;;;;;;2.43;0.57;;;15.20;99.90;;;;;;5091053;28;20923;-60
2021/04/11 10:02:36;;;;;;;2.10;0.73;;;15.10;99.90;;;;;;5093850;28;20467;-60
2021/04/11 10:05:52;;;;;;;1.60;0.20;;;15.10;99.90;;;;;;5086086;28;20439;-61
2021/04/11 10:08:37;;;;;;;2.10;0.77;;;15.20;99.90;;;;;;5050397;28;20963;-63
2021/04/11 10:11:08;;;;;;;2.63;1.00;;;15.20;99.90;;;;;;5093771;28;20458;-62
2021/04/11 10:13:52;;;;;;;1.57;0.20;;;15.10;99.90;;;;;;5092427;28;20517;-63
2021/04/11 10:16:24;;;;;;;1.83;0.60;;;15.10;99.90;;;;;;5065269;28;20448;-65
2021/04/11 10:19:41;;;;;;;2.07;0.53;;;15.00;99.90;;;;;;5093497;28;20438;-63
2021/04/11 10:22:34;;;;;;;1.53;0.20;;;14.90;99.90;;;;;;5053054;28;20986;-63
2021/04/11 10:25:24;;;;;;;2.30;0.93;;;14.90;99.90;;;;;;5100404;28;20527;-64
2021/04/11 10:28:15;;;;;;;2.67;0.83;;;14.90;99.90;;;;;;5088480;28;20483;-64
2021/04/11 10:30:45;;;;;;;1.57;0.20;;;14.80;99.90;;;;;;5095319;28;20461;-63
2021/04/11 10:33:46;;;;;;;1.70;0.30;;;14.80;99.90;;;;;;5086753;28;20473;-64
2021/04/11 10:36:23;;;;;;;24.17;4.50;;;14.70;99.90;;;;;;5074619;28;20452;-63
2021/04/11 10:38:58;;;;;;;1.70;0.50;;;14.80;99.90;;;;;;5083732;28;20437;-67
2021/04/11 10:41:25;;;;;;;1.90;0.83;;;14.70;99.90;;;;;;5087063;28;20458;-65
2021/04/11 10:43:54;;;;;;;1.57;0.20;;;14.70;99.90;;;;;;5103222;28;20441;-68
2021/04/11 10:46:35;;;;;;;1.57;0.20;;;14.70;99.90;;;;;;5102544;28;20501;-64
2021/04/11 10:49:24;;;;;;;1.57;0.20;;;14.70;99.90;;;;;;5092857;28;20438;-64
2021/04/11 10:52:17;;;;;;;1.50;0.20;;;14.60;99.90;;;;;;5089793;28;20474;-63
2021/04/11 10:55:07;;;;;;;1.60;0.20;;;14.60;99.90;;;;;;5103406;28;20901;-64
2021/04/11 10:57:58;;;;;;;1.60;0.40;;;14.60;99.90;;;;;;5103135;28;20417;-64
2021/04/11 11:01:04;;;;;;;2.20;0.70;;;14.50;99.90;;;;;;5098941;28;20421;-68
2021/04/11 11:04:01;;;;;;;2.10;0.63;;;14.50;99.90;;;;;;5047495;28;20844;-65
2021/04/11 11:06:44;;;;;;;1.53;0.20;;;14.50;99.90;;;;;;5089162;28;20426;-65
2021/04/11 11:09:29;;;;;;;1.60;0.20;;;14.50;99.90;;;;;;5107499;28;20791;-64
2021/04/11 11:12:26;;;;;;;1.70;0.37;;;14.60;99.90;;;;;;5109866;28;20472;-65
2021/04/11 11:15:21;;;;;;;1.60;0.20;;;14.60;99.90;;;;;;5097615;28;20437;-67
2021/04/11 11:18:31;;;;;;;1.60;0.20;;;14.60;99.90;;;;;;5102874;28;20426;-63
2021/04/11 11:21:15;;;;;;;1.90;0.67;;;14.50;99.90;;;;;;5095758;28;20424;-63
2021/04/11 11:23:54;;;;;;;1.60;0.20;;;14.50;99.90;;;;;;5096247;28;20465;-64
2021/04/11 11:26:46;;;;;;;2.03;1.13;;;14.50;99.90;;;;;;5108905;28;20844;-65
2021/04/11 11:29:28;;;;;;;1.57;0.20;;;14.40;99.90;;;;;;5102224;28;20528;-65
2021/04/11 11:32:05;;;;;;;1.60;0.20;;;14.40;99.90;;;;;;5095666;28;20469;-64
2021/04/11 11:34:49;;;;;;;1.80;0.40;;;14.40;99.90;;;;;;5095905;28;20439;-65
2021/04/11 11:37:54;;;;;;;1.60;0.20;;;14.30;99.90;;;;;;5089221;28;20418;-64
2021/04/11 11:40:29;;;;;;;2.87;0.60;;;14.30;99.90;;;;;;5092055;28;20448;-64
2021/04/11 11:43:43;;;;;;;1.70;0.30;;;14.20;99.90;;;;;;5097284;28;20458;-64
2021/04/11 11:46:28;;;;;;;1.60;0.20;;;14.10;99.90;;;;;;5090804;28;20505;-64
2021/04/11 11:49:05;;;;;;;2.20;0.90;;;14.10;99.90;;;;;;5111211;28;20441;-64
2021/04/11 11:51:44;;;;;;;1.70;0.40;;;13.90;99.90;;;;;;5114323;28;20468;-64
2021/04/11 11:54:24;;;;;;;1.70;0.33;;;13.60;99.90;;;;;;5101556;28;20452;-64
2021/04/11 11:57:02;;;;;;;2.60;1.63;;;13.30;99.90;;;;;;5104239;28;20434;-65
2021/04/11 11:59:34;;;;;;;4.13;1.43;;;13.10;99.90;;;;;;5110652;28;20425;-65
2021/04/11 12:02:23;;;;;;;1.60;0.20;;;13.10;99.90;;;;;;5110136;28;20537;-63
2021/04/11 12:04:58;;;;;;;1.67;0.27;;;13.00;99.90;;;;;;5104564;28;20445;-64
2021/04/11 12:07:47;;;;;;;1.80;0.60;;;13.10;99.90;;;;;;5111869;28;20441;-64
2021/04/11 12:10:18;;;;;;;2.00;1.23;;;13.00;99.90;;;;;;5104051;28;20493;-64
2021/04/11 12:13:14;;;;;;;2.00;0.67;;;13.10;99.90;;;;;;5093092;28;20481;-65
2021/04/11 12:16:12;;;;;;;2.40;1.10;;;13.10;99.90;;;;;;5092660;28;20784;-65
2021/04/11 12:18:51;;;;;;;2.57;1.50;;;13.10;99.90;;;;;;5086508;28;20462;-65
2021/04/11 12:21:43;;;;;;;1.80;0.57;;;13.10;99.90;;;;;;5096730;28;20552;-64
2021/04/11 12:24:14;;;;;;;1.80;0.53;;;13.10;99.90;;;;;;5096673;28;20429;-65
2021/04/11 12:26:55;;;;;;;2.17;0.63;;;13.20;99.90;;;;;;5090974;28;20461;-64
2021/04/11 12:29:32;;;;;;;2.13;1.03;;;13.10;99.90;;;;;;5093540;28;20495;-64
2021/04/11 12:32:31;;;;;;;2.40;0.63;;;13.10;99.90;;;;;;5101688;28;20471;-65
2021/04/11 12:35:18;;;;;;;3.17;2.30;;;13.00;99.90;;;;;;5100061;28;20982;-66
2021/04/11 12:38:18;;;;;;;3.57;1.37;;;13.00;99.90;;;;;;5068894;28;21010;-63
2021/04/11 12:40:56;;;;;;;1.80;0.50;;;12.90;99.90;;;;;;5092801;28;20435;-65
2021/04/11 12:43:45;;;;;;;2.30;0.87;;;12.90;99.90;;;;;;5104059;28;20441;-65
2021/04/11 12:46:29;;;;;;;2.07;0.70;;;12.80;99.90;;;;;;5079200;28;20451;-65
2021/04/11 12:49:21;;;;;;;2.80;1.60;;;12.80;99.90;;;;;;5087444;28;20929;-64
2021/04/11 12:52:06;;;;;;;1.70;0.43;;;12.80;99.90;;;;;;5092344;28;20480;-65
2021/04/11 12:54:43;;;;;;;1.80;0.57;;;12.70;99.90;;;;;;5104608;28;20944;-62
2021/04/11 12:57:23;;;;;;;2.53;1.07;;;12.70;99.90;;;;;;5101453;28;20430;-64
2021/04/11 12:59:51;;;;;;;1.60;0.20;;;12.70;99.90;;;;;;5096650;28;20457;-63
2021/04/11 13:02:23;;;;;;;1.60;0.20;;;12.70;99.90;;;;;;5094100;28;21064;-64
2021/04/11 13:05:04;;;;;;;2.83;0.50;;;12.70;99.90;;;;;;5097792;28;20801;-64
2021/04/11 13:07:36;;;;;;;1.70;0.37;;;12.60;99.90;;;;;;5098570;28;20441;-64
2021/04/11 13:10:15;;;;;;;1.60;0.30;;;12.60;99.90;;;;;;5107186;28;20485;-64
2021/04/11 13:12:47;;;;;;;2.00;0.40;;;12.50;99.90;;;;;;5109989;28;20449;-64
2021/04/11 13:15:24;;;;;;;1.70;0.30;;;12.50;99.90;;;;;;5107142;28;20451;-63
2021/04/11 13:18:19;;;;;;;1.60;0.20;;;12.60;99.90;;;;;;5103411;28;20429;-64
2021/04/11 13:21:05;;;;;;;1.73;0.40;;;12.40;99.90;;;;;;5104315;28;20435;-64
2021/04/11 13:23:32;;;;;;;1.60;0.20;;;12.30;99.90;;;;;;5099446;28;20446;-64
2021/04/11 13:26:16;;;;;;;1.60;0.20;;;12.20;99.90;;;;;;5109794;28;20468;-63
2021/04/11 13:29:00;;;;;;;2.10;0.60;;;12.20;99.90;;;;;;5102487;28;20469;-68
2021/04/11 13:31:47;;;;;;;3.97;1.13;;;12.10;99.90;;;;;;5098202;28;20476;-63
2021/04/11 13:34:22;;;;;;;1.67;0.30;;;11.90;99.90;;;;;;5105029;28;20434;-64
2021/04/11 13:36:49;;;;;;;1.60;0.20;;;11.90;99.90;;;;;;5103729;28;20504;-64
2021/04/11 13:39:31;;;;;;;1.63;0.27;;;11.90;99.90;;;;;;5106648;28;20451;-64
2021/04/11 13:42:19;;;;;;;1.60;0.20;;;11.80;99.90;;;;;;5107936;28;20484;-63
2021/04/11 13:45:05;;;;;;;1.60;0.20;;;11.90;99.90;;;;;;5102810;28;20441;-63
2021/04/11 13:47:48;;;;;;;1.60;0.20;;;11.90;99.90;;;;;;5099621;28;20529;-64
2021/04/11 13:50:59;;;;;;;2.00;0.90;;;11.90;99.90;;;;;;5097728;28;20471;-64
2021/04/11 13:53:50;;;;;;;1.70;0.30;;;11.80;99.90;;;;;;5080122;28;20445;-67